Billings, MT

5:58 PM MDT on September 17, 2014 (GMT -0600)
Downtown Billings | Change Station
CLOSE
Current Station
Personal Weather Station
Location: Billings, MT
Elevation: 3127 ft
Nearby Weather Stations

Elev 3127 ft 45.78 °N, 108.50 °W | Updated 40 minutes ago

Mostly Cloudy
Mostly Cloudy
87.4 °F
Feels Like 84 °F
N
2.9
Wind Variable Wind from South
Gusts 5.6 mph

Today
High -- | Low -- °F
--% Chance of Precip.
Yesterday
High -- | Low -- °F
Precip. -- in
6:54 AM 7:21 PM
Waning Crescent, 32% visible
Pressure 29.75 in
Visibility 10.0 miles
Clouds Scattered Clouds 12000 ft
Mostly Cloudy 23000 ft
Heat Index 84 °F
Dew Point 44 °F
Humidity 22%
Rainfall -999.00 in
Snow Depth 0 in , 0 in , 0 in
UV 0 out of 12
Pollen 6.00 out of 12
Air Quality Not available.
Flu Activity Not available.
METAR KBIL 172353Z 16003KT 10SM SCT120 BKN230 29/06 A2986 RMK AO2 SLP075 T02940061 10306 20261 55008

More Conditions Fewer Conditions

Pressure 29.75 in
Visibility 10.0 miles
Clouds Scattered Clouds 12000 ft
Mostly Cloudy 23000 ft
Heat Index 84 °F
Dew Point 44 °F
Humidity 22%
Rainfall -999.00 in
Snow Depth 0 in , 0 in , 0 in
UV 0 out of 12
Pollen 6.00 out of 12
Air Quality Not available.
Flu Activity Not available.
METAR KBIL 172353Z 16003KT 10SM SCT120 BKN230 29/06 A2986 RMK AO2 SLP075 T02940061 10306 20261 55008

More Conditions Fewer Conditions

10-Day Weather Forecast

Almanac

Astronomy

Sep. 17, 2014 Rise Set
Actual Time 6:54 AM MDT 7:21 PM MDT
Civil Twilight 6:24 AM MDT 7:50 PM MDT
Nautical Twilight 5:49 AM MDT 8:26 PM MDT
Astronomical Twilight 5:13 AM MDT 9:02 PM MDT
Moon 12:44 AM MDT 3:45 PM MDT
Length of Visible Light 13h 25m
Length of Day
12h 26m
Tomorrow will be 3m 11s shorter.
Waning Crescent, 32% of the Moon is Illuminated
Today
Waning Crescent
Sep 24
New
Oct 1
First Quarter
Oct 8
Full
Oct 15
Last Quarter

Today's Extremes

State Highs State Lows

Community

WunderPhotos

Upload Photos

1,754,198 photos uploaded!

Nearby

Snow Depth

Station Depth Elevation
Brackett Creek 0 in 7320 ft
Emery Creek 0 in 4350 ft
Stahl Peak 0 in 6030 ft
Porcupine 0 in 6500 ft
Nevada Ridge 0 in 7020 ft

Earthquake Activity

City Distance Mag. Time & Date
No recent earthquake activity has been reported nearby.
Minimum magnitude displayed is 2.5.

Coastal Water Temperatures

Place Temperature
No Stations Reporting

Nearby Weather Stations